createdAt,value
2019-04-26T00:01:19.026Z,49.93
2019-04-26T00:03:50.846Z,56.63
2019-04-26T00:06:21.614Z,61.63
2019-04-26T00:08:56.607Z,59.08
2019-04-26T00:11:31.704Z,58.20
2019-04-26T00:14:16.281Z,71.50
2019-04-26T00:16:48.630Z,67.50
2019-04-26T00:19:19.128Z,63.28
2019-04-26T00:21:49.710Z,62.43
2019-04-26T00:24:21.402Z,71.07
2019-04-26T00:26:51.911Z,61.58
2019-04-26T00:29:22.370Z,58.68
2019-04-26T00:31:52.805Z,56.95
2019-04-26T00:34:23.327Z,58.68
2019-04-26T00:36:53.869Z,54.50
2019-04-26T00:39:25.077Z,52.62
2019-04-26T00:41:55.735Z,52.73
2019-04-26T00:44:27.549Z,52.35
2019-04-26T00:47:00.754Z,54.42
2019-04-26T00:49:43.084Z,52.88
2019-04-26T00:52:05.274Z,53.63
2019-04-26T00:54:35.820Z,58.80
2019-04-26T00:57:07.334Z,52.08
2019-04-26T00:59:39.151Z,57.80
2019-04-26T01:02:23.045Z,60.58
2019-04-26T01:04:53.457Z,63.92
2019-04-26T01:07:23.893Z,69.58
2019-04-26T01:09:54.311Z,67.03
2019-04-26T01:12:24.712Z,63.98
2019-04-26T01:14:55.242Z,71.75
2019-04-26T01:17:26.723Z,87.60
2019-04-26T01:19:58.606Z,84.72
2019-04-26T01:22:31.917Z,88.40
2019-04-26T01:25:04.176Z,76.65
2019-04-26T01:27:37.302Z,73.52
2019-04-26T01:30:10.057Z,83.30
2019-04-26T01:32:43.135Z,81.67
2019-04-26T01:35:13.601Z,69.72
2019-04-26T01:37:46.376Z,85.22
2019-04-26T01:40:18.445Z,64.37
2019-04-26T01:42:54.308Z,79.37
2019-04-26T01:45:32.089Z,85.53
2019-04-26T01:48:07.089Z,66.47
2019-04-26T01:50:37.866Z,76.97
2019-04-26T01:53:08.599Z,79.67
2019-04-26T01:55:39.055Z,83.87
2019-04-26T01:58:09.489Z,56.28
2019-04-26T02:00:59.172Z,76.62
2019-04-26T02:03:31.832Z,67.82
2019-04-26T02:06:02.486Z,63.48
2019-04-26T02:08:32.921Z,67.05
2019-04-26T02:11:03.610Z,66.05
2019-04-26T02:13:34.045Z,76.35
2019-04-26T02:16:04.922Z,90.57
2019-04-26T02:18:35.563Z,81.30
2019-04-26T02:21:18.407Z,93.40
2019-04-26T02:23:51.098Z,96.75
2019-04-26T02:26:35.112Z,91.65
2019-04-26T02:29:08.557Z,94.17
2019-04-26T02:31:40.830Z,108.35
2019-04-26T02:34:11.584Z,92.75
2019-04-26T02:36:57.347Z,109.48
2019-04-26T02:39:22.978Z,126.77
2019-04-26T02:41:56.782Z,104.12
2019-04-26T02:44:32.970Z,93.40
2019-04-26T02:47:24.206Z,87.73
2019-04-26T02:49:58.163Z,79.05
2019-04-26T02:52:47.910Z,111.95
2019-04-26T02:55:53.872Z,102.93
2019-04-26T02:58:29.435Z,102.20
2019-04-26T03:01:01.758Z,117.67
2019-04-26T03:03:34.370Z,75.13
2019-04-26T03:06:04.686Z,87.63
2019-04-26T03:08:39.351Z,74.33
2019-04-26T03:11:16.890Z,75.77
2019-04-26T03:13:49.581Z,85.20
2019-04-26T03:16:31.438Z,84.58
2019-04-26T03:19:09.685Z,86.40
2019-04-26T03:21:57.834Z,64.85
2019-04-26T03:24:32.960Z,68.80
2019-04-26T03:27:35.896Z,71.12
2019-04-26T03:30:22.800Z,85.40
2019-04-26T03:32:56.709Z,86.47
2019-04-26T03:35:56.391Z,87.62
2019-04-26T03:38:41.075Z,74.60
2019-04-26T03:41:36.297Z,84.30
2019-04-26T03:44:09.180Z,81.20
2019-04-26T03:46:51.283Z,59.70
2019-04-26T03:49:38.090Z,67.75
2019-04-26T03:52:21.857Z,52.95
2019-04-26T03:54:55.231Z,71.70
2019-04-26T03:57:36.922Z,55.23
2019-04-26T04:00:27.927Z,53.87
2019-04-26T04:03:29.693Z,57.30
2019-04-26T04:06:02.875Z,57.95
2019-04-26T04:08:42.950Z,69.95
2019-04-26T04:11:17.115Z,58.50
2019-04-26T04:13:56.291Z,65.37
2019-04-26T04:16:48.898Z,72.20
2019-04-26T04:20:01.214Z,70.72
2019-04-26T04:22:41.785Z,55.30
2019-04-26T04:25:15.567Z,55.98
2019-04-26T04:27:49.355Z,62.13
2019-04-26T04:30:40.014Z,56.53
2019-04-26T04:33:18.415Z,52.27
2019-04-26T04:35:52.917Z,61.42
2019-04-26T04:38:30.951Z,71.22
2019-04-26T04:41:11.518Z,67.42
2019-04-26T04:43:48.799Z,70.03
2019-04-26T04:46:43.846Z,67.27
2019-04-26T04:49:55.169Z,67.90
2019-04-26T04:52:41.322Z,60.78
2019-04-26T04:55:15.448Z,71.40
2019-04-26T04:58:09.656Z,86.78
2019-04-26T05:01:05.506Z,88.80
2019-04-26T05:03:56.921Z,97.53
2019-04-26T05:06:31.826Z,92.12
2019-04-26T05:09:06.919Z,90.28
2019-04-26T05:11:45.949Z,95.47
2019-04-26T05:14:45.260Z,70.05
2019-04-26T05:17:34.449Z,75.42
2019-04-26T05:20:25.742Z,79.03
2019-04-26T05:23:19.783Z,60.55
2019-04-26T05:26:24.545Z,65.05
2019-04-26T05:29:26.097Z,49.15
2019-04-26T05:32:28.896Z,49.08
2019-04-26T05:35:46.235Z,47.23
2019-04-26T05:38:38.732Z,49.75
2019-04-26T05:41:35.836Z,51.63
2019-04-26T05:44:16.636Z,51.75
2019-04-26T05:47:23.009Z,56.35
2019-04-26T05:50:16.026Z,44.73
2019-04-26T05:52:57.235Z,44.05
2019-04-26T05:55:41.062Z,44.88
2019-04-26T05:58:44.432Z,28.10
2019-04-26T06:01:32.803Z,32.33
2019-04-26T06:04:25.437Z,32.95
2019-04-26T06:07:03.082Z,34.43
2019-04-26T06:09:54.441Z,48.65
2019-04-26T06:12:29.442Z,42.00
2019-04-26T06:15:21.819Z,41.48
2019-04-26T06:18:11.597Z,45.33
2019-04-26T06:20:47.736Z,35.63
2019-04-26T06:23:23.946Z,39.53
2019-04-26T06:26:31.851Z,28.75
2019-04-26T06:29:13.807Z,30.08
2019-04-26T06:32:01.237Z,33.53
2019-04-26T06:34:59.758Z,38.42
2019-04-26T06:37:55.351Z,30.92
2019-04-26T06:40:28.773Z,35.52
2019-04-26T06:43:12.330Z,35.15
2019-04-26T06:46:00.495Z,38.33
2019-04-26T06:48:41.500Z,36.80
2019-04-26T06:51:24.484Z,37.25
2019-04-26T06:54:14.247Z,31.12
2019-04-26T06:56:49.364Z,22.15
2019-04-26T06:59:35.791Z,31.73
2019-04-26T07:02:01.533Z,35.92
2019-04-26T07:04:44.049Z,25.12
2019-04-26T07:07:30.019Z,25.35
2019-04-26T07:10:04.048Z,24.10
2019-04-26T07:12:59.979Z,35.15
2019-04-26T07:15:50.336Z,26.73
2019-04-26T07:18:43.833Z,30.27
2019-04-26T07:21:23.530Z,29.10
2019-04-26T07:24:22.273Z,28.73
2019-04-26T07:27:05.109Z,28.60
2019-04-26T07:30:07.333Z,33.63
2019-04-26T07:33:10.956Z,26.87
2019-04-26T07:36:09.863Z,28.98
2019-04-26T07:39:19.891Z,26.07
2019-04-26T07:42:19.982Z,23.75
2019-04-26T07:45:02.242Z,27.98
2019-04-26T07:48:18.267Z,31.12
2019-04-26T07:50:54.345Z,25.62
2019-04-26T07:53:44.403Z,25.12
2019-04-26T07:56:49.639Z,26.93
2019-04-26T07:59:50.306Z,24.80
2019-04-26T08:02:34.027Z,31.68
2019-04-26T08:05:15.532Z,26.93
2019-04-26T08:07:53.301Z,25.12
2019-04-26T08:10:25.305Z,26.85
2019-04-26T08:13:05.950Z,25.05
2019-04-26T08:15:53.255Z,28.55
2019-04-26T08:18:30.803Z,24.77
2019-04-26T08:21:20.728Z,26.00
2019-04-26T08:23:56.457Z,24.23
2019-04-26T08:29:34.656Z,24.35
2019-04-26T08:32:11.321Z,24.25
2019-04-26T08:34:48.263Z,21.23
2019-04-26T08:38:00.575Z,26.40
2019-04-26T08:40:40.481Z,20.20
2019-04-26T08:43:30.858Z,19.95
2019-04-26T08:46:16.166Z,28.23
2019-04-26T08:49:17.812Z,29.75
2019-04-26T08:51:57.531Z,19.85
2019-04-26T08:54:32.746Z,29.55
2019-04-26T08:57:07.205Z,26.93
2019-04-26T08:59:40.852Z,21.82
2019-04-26T09:02:21.971Z,26.73
2019-04-26T09:04:59.817Z,27.62
2019-04-26T09:07:36.993Z,26.80
2019-04-26T09:10:11.461Z,31.40
2019-04-26T09:12:44.785Z,31.27
2019-04-26T09:15:21.422Z,29.35
2019-04-26T09:17:52.767Z,29.37
2019-04-26T09:20:28.948Z,32.78
2019-04-26T09:23:12.235Z,33.42
2019-04-26T09:25:59.405Z,32.88
2019-04-26T09:28:47.693Z,30.97
2019-04-26T09:31:21.131Z,28.12
2019-04-26T09:33:55.875Z,30.30
2019-04-26T09:36:30.531Z,27.40
2019-04-26T09:39:03.843Z,27.82
2019-04-26T09:41:33.789Z,26.95
2019-04-26T09:44:22.119Z,24.72
2019-04-26T09:46:54.436Z,29.25
2019-04-26T09:49:29.331Z,29.00
2019-04-26T09:52:00.780Z,28.90
2019-04-26T09:54:32.205Z,23.98
2019-04-26T09:57:02.753Z,27.52
2019-04-26T09:59:36.332Z,29.15
2019-04-26T10:02:06.294Z,25.37
2019-04-26T10:04:38.829Z,27.15
2019-04-26T10:07:14.348Z,33.73
2019-04-26T10:09:46.268Z,32.75
2019-04-26T10:12:34.196Z,28.73
2019-04-26T10:15:26.799Z,34.18
2019-04-26T10:17:55.760Z,27.95
2019-04-26T10:20:26.367Z,25.05
2019-04-26T10:22:56.806Z,29.50
2019-04-26T10:25:27.373Z,24.32
2019-04-26T10:28:01.073Z,27.87
2019-04-26T10:30:31.553Z,41.50
2019-04-26T10:33:03.618Z,27.85
2019-04-26T10:35:34.855Z,27.17
2019-04-26T10:38:05.669Z,22.07
2019-04-26T10:40:43.121Z,22.58
2019-04-26T10:43:13.841Z,22.80
2019-04-26T10:45:45.938Z,26.10
2019-04-26T10:48:16.578Z,23.75
2019-04-26T10:50:48.162Z,23.47
2019-04-26T10:53:20.174Z,22.07
2019-04-26T10:55:55.830Z,26.07
2019-04-26T10:58:39.692Z,38.15
2019-04-26T11:01:12.104Z,31.25
2019-04-26T11:03:43.640Z,22.17
2019-04-26T11:06:27.765Z,26.68
2019-04-26T11:08:59.462Z,30.68
2019-04-26T11:11:30.187Z,27.80
2019-04-26T11:14:01.130Z,26.23
2019-04-26T11:19:08.221Z,23.95
2019-04-26T11:21:39.105Z,31.75
2019-04-26T11:24:11.337Z,24.60
2019-04-26T11:26:43.363Z,28.57
2019-04-26T11:29:14.477Z,32.17
2019-04-26T11:31:46.720Z,26.15
2019-04-26T11:34:19.241Z,30.82
2019-04-26T11:36:50.434Z,26.55
2019-04-26T11:39:22.706Z,26.42
2019-04-26T11:41:57.284Z,25.62
2019-04-26T11:44:28.554Z,27.30
2019-04-26T11:47:03.269Z,32.58
2019-04-26T11:49:37.384Z,39.20
2019-04-26T11:52:07.626Z,24.77
2019-04-26T11:54:38.431Z,26.60
2019-04-26T11:57:12.138Z,27.10
2019-04-26T11:59:44.219Z,29.82
2019-04-26T12:02:19.768Z,29.52
2019-04-26T12:04:53.755Z,28.57
2019-04-26T12:07:28.291Z,30.97
2019-04-26T12:10:00.362Z,49.75
2019-04-26T12:12:32.419Z,37.42
2019-04-26T12:15:08.557Z,30.62
2019-04-26T12:17:40.567Z,28.62
2019-04-26T12:20:11.147Z,28.27
2019-04-26T12:22:43.403Z,21.87
2019-04-26T12:28:07.338Z,21.62
2019-04-26T12:30:41.192Z,22.62
2019-04-26T12:33:13.239Z,26.60
2019-04-26T12:35:46.122Z,31.82
2019-04-26T12:38:20.243Z,18.60
2019-04-26T12:40:58.394Z,20.62
2019-04-26T12:43:28.902Z,25.90
2019-04-26T12:46:17.586Z,35.08
2019-04-26T12:48:57.245Z,18.35
2019-04-26T12:51:27.950Z,19.45
2019-04-26T12:54:08.082Z,20.57
2019-04-26T12:56:36.664Z,22.05
2019-04-26T12:59:08.498Z,23.47
2019-04-26T13:01:46.370Z,19.23
2019-04-26T13:04:15.837Z,24.27
2019-04-26T13:06:58.218Z,18.98
2019-04-26T13:09:29.731Z,16.93
2019-04-26T13:12:02.092Z,24.12
2019-04-26T13:14:55.341Z,32.28
2019-04-26T13:18:07.219Z,17.60
2019-04-26T13:20:50.640Z,24.45
2019-04-26T13:23:21.455Z,30.23
2019-04-26T13:25:55.375Z,20.02
2019-04-26T13:28:28.220Z,31.27
2019-04-26T13:31:02.359Z,17.82
2019-04-26T13:33:39.554Z,23.52
2019-04-26T13:36:13.330Z,18.55
2019-04-26T13:38:45.187Z,19.25
2019-04-26T13:41:28.007Z,16.62
2019-04-26T13:44:14.324Z,18.20
2019-04-26T13:46:48.357Z,22.02
2019-04-26T13:49:27.527Z,16.57
2019-04-26T13:51:55.902Z,18.42
2019-04-26T13:54:29.214Z,20.48
2019-04-26T13:57:06.144Z,18.57
2019-04-26T13:59:38.921Z,19.95
2019-04-26T14:02:17.482Z,19.77
2019-04-26T14:04:58.519Z,16.75
2019-04-26T14:07:30.670Z,22.32
2019-04-26T14:10:03.120Z,20.70
2019-04-26T14:12:55.545Z,25.57
2019-04-26T14:15:51.653Z,26.85
2019-04-26T14:18:23.670Z,20.25
2019-04-26T14:20:58.979Z,25.60
2019-04-26T14:23:56.499Z,18.80
2019-04-26T14:26:39.827Z,18.92
2019-04-26T14:29:08.454Z,22.32
2019-04-26T14:31:39.166Z,21.87
2019-04-26T14:34:31.532Z,21.00
2019-04-26T14:37:15.346Z,18.80
2019-04-26T14:39:59.056Z,24.12
2019-04-26T14:42:48.455Z,23.12
2019-04-26T14:45:24.152Z,22.13
2019-04-26T14:48:20.070Z,24.32
2019-04-26T14:50:53.153Z,32.95
2019-04-26T14:53:23.515Z,23.22
2019-04-26T14:55:56.809Z,19.35
2019-04-26T14:58:32.108Z,18.23
2019-04-26T15:01:05.166Z,18.12
2019-04-26T15:03:59.299Z,24.12
2019-04-26T15:06:33.221Z,17.50
2019-04-26T15:09:16.823Z,18.90
2019-04-26T15:11:37.810Z,15.85
2019-04-26T15:14:23.806Z,23.12
2019-04-26T15:16:54.299Z,26.37
2019-04-26T15:19:24.919Z,35.25
2019-04-26T15:21:58.069Z,19.25
2019-04-26T15:24:30.158Z,21.50
2019-04-26T15:27:01.814Z,18.85
2019-04-26T15:29:33.024Z,18.23
2019-04-26T15:32:05.317Z,16.70
2019-04-26T15:34:35.772Z,16.80
2019-04-26T15:37:06.444Z,36.70
2019-04-26T15:39:56.825Z,23.67
2019-04-26T15:42:42.263Z,28.23
2019-04-26T15:45:14.337Z,39.05
2019-04-26T15:47:46.545Z,17.02
2019-04-26T15:50:18.631Z,23.62
2019-04-26T15:52:49.165Z,21.48
2019-04-26T15:55:19.632Z,19.25
2019-04-26T15:57:50.065Z,18.85
2019-04-26T16:00:22.455Z,24.23
2019-04-26T16:02:54.601Z,25.85
2019-04-26T16:05:29.421Z,20.95
2019-04-26T16:07:57.366Z,16.37
2019-04-26T16:10:33.533Z,25.45
2019-04-26T16:13:16.199Z,26.17
2019-04-26T16:15:33.769Z,18.95
2019-04-26T16:18:04.395Z,25.70
2019-04-26T16:20:37.648Z,27.20
2019-04-26T16:23:07.446Z,24.05
2019-04-26T16:25:39.184Z,26.20
2019-04-26T16:28:26.145Z,19.90
2019-04-26T16:31:06.634Z,20.52
2019-04-26T16:33:40.566Z,24.00
2019-04-26T16:36:11.021Z,21.50
2019-04-26T16:38:41.451Z,22.50
2019-04-26T16:41:11.929Z,28.85
2019-04-26T16:43:52.218Z,27.10
2019-04-26T16:46:20.070Z,28.32
2019-04-26T16:48:46.664Z,21.40
2019-04-26T16:51:17.118Z,23.62
2019-04-26T16:54:03.746Z,22.10
2019-04-26T16:56:25.941Z,19.95
2019-04-26T16:58:54.737Z,18.95
2019-04-26T17:01:24.045Z,31.07
2019-04-26T17:03:54.895Z,25.08
2019-04-26T17:06:25.341Z,31.95
2019-04-26T17:09:01.002Z,22.60
2019-04-26T17:11:30.245Z,42.20
2019-04-26T17:14:04.325Z,42.73
2019-04-26T17:16:34.689Z,51.08
2019-04-26T17:19:04.574Z,24.67
2019-04-26T17:21:36.645Z,20.82
2019-04-26T17:24:23.520Z,23.07
2019-04-26T17:26:58.602Z,21.25
2019-04-26T17:29:29.020Z,22.85
2019-04-26T17:32:02.539Z,23.10
2019-04-26T17:34:33.629Z,24.82
2019-04-26T17:37:07.893Z,23.73
2019-04-26T17:39:36.340Z,25.37
2019-04-26T17:42:06.841Z,22.32
2019-04-26T17:44:37.292Z,35.55
2019-04-26T17:47:08.503Z,26.45
2019-04-26T17:49:42.340Z,21.45
2019-04-26T17:52:11.741Z,24.67
2019-04-26T17:54:52.477Z,25.95
2019-04-26T17:57:14.829Z,38.75
2019-04-26T17:59:48.951Z,21.80
2019-04-26T18:02:25.889Z,26.75
2019-04-26T18:04:59.040Z,26.90
2019-04-26T18:07:39.802Z,22.32
2019-04-26T18:09:56.991Z,35.03
2019-04-26T18:12:27.016Z,24.82
2019-04-26T18:15:00.129Z,27.35
2019-04-26T18:17:38.912Z,27.17
2019-04-26T18:20:23.513Z,23.38
2019-04-26T18:22:55.568Z,23.15
2019-04-26T18:25:26.186Z,30.57
2019-04-26T18:27:56.680Z,28.70
2019-04-26T18:30:27.393Z,32.88
2019-04-26T18:32:57.837Z,34.80
2019-04-26T18:35:28.271Z,39.53
2019-04-26T18:37:58.739Z,23.10
2019-04-26T18:40:29.157Z,31.45
2019-04-26T18:42:59.636Z,33.10
2019-04-26T18:45:30.240Z,35.10
2019-04-26T18:48:01.938Z,29.70
2019-04-26T18:50:36.381Z,32.78
2019-04-26T18:53:15.333Z,32.35
2019-04-26T18:55:47.342Z,41.53
2019-04-26T18:58:17.831Z,40.70
2019-04-26T19:00:48.247Z,47.17
2019-04-26T19:03:18.754Z,46.45
2019-04-26T19:05:49.455Z,47.33
2019-04-26T19:08:20.822Z,33.90
2019-04-26T19:10:59.213Z,37.23
2019-04-26T19:13:32.134Z,39.18
2019-04-26T19:16:03.678Z,29.45
2019-04-26T19:18:45.044Z,42.35
2019-04-26T19:21:25.862Z,40.78
2019-04-26T19:24:05.852Z,42.93
2019-04-26T19:26:32.996Z,49.03
2019-04-26T19:29:02.113Z,46.98
2019-04-26T19:31:32.850Z,43.10
2019-04-26T19:34:03.333Z,46.00
2019-04-26T19:36:33.750Z,42.85
2019-04-26T19:39:05.666Z,37.83
2019-04-26T19:41:36.103Z,39.80
2019-04-26T19:44:06.665Z,44.33
2019-04-26T19:46:53.640Z,47.93
2019-04-26T19:49:40.332Z,44.15
2019-04-26T19:52:15.008Z,34.48
2019-04-26T19:54:47.038Z,32.05
2019-04-26T19:57:39.262Z,41.60
2019-04-26T20:00:09.877Z,76.65
2019-04-26T20:02:41.844Z,37.65
2019-04-26T20:05:12.569Z,28.25
2019-04-26T20:07:43.844Z,27.75
2019-04-26T20:10:14.292Z,22.40
2019-04-26T20:12:44.717Z,27.17
2019-04-26T20:15:25.448Z,20.12
2019-04-26T20:17:52.388Z,17.20
2019-04-26T20:20:23.222Z,22.17
2019-04-26T20:22:51.584Z,29.77
2019-04-26T20:25:22.423Z,18.50
2019-04-26T20:27:53.762Z,27.40
2019-04-26T20:30:32.677Z,25.85
2019-04-26T20:33:03.199Z,20.72
2019-04-26T20:35:33.651Z,70.55
2019-04-26T20:38:04.892Z,32.85
2019-04-26T20:40:35.413Z,27.67
2019-04-26T20:43:07.054Z,28.05
2019-04-26T20:45:41.447Z,15.35
2019-04-26T20:48:10.050Z,13.98
2019-04-26T20:50:41.331Z,15.85
2019-04-26T20:53:12.128Z,23.95
2019-04-26T20:55:42.839Z,12.07
2019-04-26T20:58:13.271Z,13.32
2019-04-26T21:00:53.799Z,18.87
2019-04-26T21:03:23.869Z,17.55
2019-04-26T21:05:52.829Z,16.85
2019-04-26T21:08:25.750Z,15.08
2019-04-26T21:10:56.041Z,19.95
2019-04-26T21:13:30.788Z,24.18
2019-04-26T21:16:03.443Z,17.95
2019-04-26T21:18:33.764Z,14.75
2019-04-26T21:21:05.816Z,15.53
2019-04-26T21:23:39.974Z,18.00
2019-04-26T21:26:16.578Z,14.73
2019-04-26T21:28:51.967Z,19.80
2019-04-26T21:31:25.488Z,13.18
2019-04-26T21:34:07.828Z,13.18
2019-04-26T21:36:49.148Z,17.90
2019-04-26T21:39:23.882Z,22.00
2019-04-26T21:41:55.927Z,14.03
2019-04-26T21:44:26.370Z,11.10
2019-04-26T21:46:58.954Z,9.65
2019-04-26T21:49:28.958Z,16.23
2019-04-26T21:51:59.420Z,11.88
2019-04-26T21:54:29.846Z,13.58
2019-04-26T21:57:00.313Z,17.17
2019-04-26T21:59:35.144Z,19.48
2019-04-26T22:02:03.374Z,16.20
2019-04-26T22:04:37.576Z,22.35
2019-04-26T22:07:07.796Z,16.93
2019-04-26T22:09:45.556Z,12.53
2019-04-26T22:12:16.617Z,12.43
2019-04-26T22:14:50.743Z,8.25
2019-04-26T22:17:28.071Z,16.20
2019-04-26T22:20:12.497Z,15.00
2019-04-26T22:22:41.466Z,19.32
2019-04-26T22:25:12.915Z,13.85
2019-04-26T22:27:43.758Z,16.25
2019-04-26T22:30:18.566Z,15.55
2019-04-26T22:32:54.675Z,13.35
2019-04-26T22:35:21.680Z,18.37
2019-04-26T22:37:53.739Z,13.93
2019-04-26T22:40:24.223Z,14.05
2019-04-26T22:42:56.256Z,14.40
2019-04-26T22:45:34.433Z,11.38
2019-04-26T22:48:11.545Z,13.15
2019-04-26T22:50:41.275Z,14.40
2019-04-26T22:53:12.047Z,16.35
2019-04-26T22:55:43.619Z,19.98
2019-04-26T22:58:14.145Z,15.60
2019-04-26T23:00:44.742Z,22.98
2019-04-26T23:03:16.623Z,14.80
2019-04-26T23:05:47.075Z,17.23
2019-04-26T23:08:17.535Z,23.85
2019-04-26T23:10:52.993Z,28.02
2019-04-26T23:13:33.882Z,19.70
2019-04-26T23:16:11.118Z,19.85
2019-04-26T23:18:57.810Z,18.05
2019-04-26T23:21:29.931Z,22.35
2019-04-26T23:24:00.412Z,23.00
2019-04-26T23:26:30.819Z,24.65
2019-04-26T23:29:01.322Z,21.93
2019-04-26T23:31:33.363Z,19.40
2019-04-26T23:34:04.081Z,27.02
2019-04-26T23:36:34.931Z,20.88
2019-04-26T23:39:07.678Z,18.27
2019-04-26T23:41:41.675Z,29.37
2019-04-26T23:47:20.556Z,23.63
2019-04-26T23:49:43.394Z,23.53
2019-04-26T23:52:14.566Z,30.83
2019-04-26T23:54:46.390Z,18.93
2019-04-26T23:57:16.933Z,22.43
2019-04-26T23:59:51.043Z,20.53
